Aérodrome :
LOGIN :

S'inscrire | Disclaimer

   EN    FR    IT 

 










Légende :    VFR   VFR Marginal   IFR   IFR Intensif   IFR Très Intensif
Visi : 
Plafond : 
>= 8 km
>= 3000ft
5 à 8 km
1000 à 3000 ft
1500m à 5 km
500 à 1000 ft
800 à 1500m
200 à 500 ft
< 800m
< 200 ft
Symboles :   Orages  Brouillard  Fortes neiges  Fortes précipitations  Vent > 20 kt
SIGMETs :   Divers  Orages  Givrage  Turbulence  Onde Orograph.  Cendres Volcan.







- Altitude de l'aérodrome : 245 ft
- Code IATA : BIQ
- Voir les cartes d'approche


LFBZ - Biarritz

DERNIER METAR :
  • 301000Z AUTO 18008KT 110V240 9999 NSC 24/07 Q1021 NOSIG

METARs EXPIRÉS :
  • 300930Z AUTO 18010KT 130V230 9999 NSC 23/07 Q1021 NOSIG
  • 300900Z AUTO 19008KT 150V240 9999 NSC 22/07 Q1021 NOSIG
  • 300830Z AUTO 19007KT 130V240 9999 NSC 21/07 Q1021 NOSIG
  • 300800Z AUTO 17006KT 130V250 9999 NSC 21/07 Q1021 NOSIG
  • 300730Z AUTO 17006KT 140V200 9999 NSC 20/07 Q1021 NOSIG

TAF TAF LFBZ
Valide du 30 à 06h jusqu'au 31 à 06h UTC


300500Z 3006/3106 12005KT CAVOK
BECMG 3008/3010 18010KT
TEMPO 3010/3018 20010G20KT
TEMPO 3018/3021 10006KT
PROB30
TEMPO 3022/3103 19015G30KT
BECMG 3103/3105 30010KT
PROB30
TEMPO 3104/3106 28015G25KT
Pas de NOTAMs connus pour ce terrain.



MET'MAP, la Météo Aéronautique d'un coup d'oeil ! - Copyright ORBIFLY Décembre 2007 - Disclaimer

ORBIFLY MET'MAP TEAM :

Programmation & Développement : Alexandra Zaïnal
Conception & Développement : Baudouin d'Aumeries
Co-Programmation & Développement : Marc-Olivier Méhu
Soutien technique & logistique : Manuel Goepfert

Contact : metmap@orbifly.com




SOURCES & CREDITS :

   NOAA